sensor_id;sensor_type;location;lat;lon;timestamp;pressure;altitude;pressure_sealevel;temperature;humidity
64228;BME280;50546;49.146;10.616;2022-08-19T00:00:25;95791.66;;;21.85;67.11
64228;BME280;50546;49.146;10.616;2022-08-19T00:02:52;95783.06;;;21.83;67.21
64228;BME280;50546;49.146;10.616;2022-08-19T00:05:19;95780.34;;;21.79;67.36
64228;BME280;50546;49.146;10.616;2022-08-19T00:07:45;95781.44;;;21.89;67.06
64228;BME280;50546;49.146;10.616;2022-08-19T00:10:13;95768.94;;;21.84;67.10
64228;BME280;50546;49.146;10.616;2022-08-19T00:12:38;95778.41;;;21.73;67.95
64228;BME280;50546;49.146;10.616;2022-08-19T00:15:05;95776.06;;;21.71;68.19
64228;BME280;50546;49.146;10.616;2022-08-19T00:17:33;95779.22;;;21.70;67.90
64228;BME280;50546;49.146;10.616;2022-08-19T00:19:58;95773.72;;;21.70;68.18
64228;BME280;50546;49.146;10.616;2022-08-19T00:22:24;95783.16;;;21.69;67.94
64228;BME280;50546;49.146;10.616;2022-08-19T00:24:52;95785.09;;;21.72;67.76
64228;BME280;50546;49.146;10.616;2022-08-19T00:27:17;95781.56;;;21.68;68.24
64228;BME280;50546;49.146;10.616;2022-08-19T00:29:42;95784.75;;;21.62;68.38
64228;BME280;50546;49.146;10.616;2022-08-19T00:32:08;95779.25;;;21.66;68.33
64228;BME280;50546;49.146;10.616;2022-08-19T00:34:33;95779.25;;;21.62;68.59
64228;BME280;50546;49.146;10.616;2022-08-19T00:36:58;95784.31;;;21.68;68.29
64228;BME280;50546;49.146;10.616;2022-08-19T00:39:25;95793.69;;;21.74;68.10
64228;BME280;50546;49.146;10.616;2022-08-19T00:41:51;95792.94;;;21.70;67.98
64228;BME280;50546;49.146;10.616;2022-08-19T00:44:22;95787.84;;;21.68;68.37
64228;BME280;50546;49.146;10.616;2022-08-19T00:46:50;95787.06;;;21.64;68.33
64228;BME280;50546;49.146;10.616;2022-08-19T00:49:23;95785.16;;;21.61;68.77
64228;BME280;50546;49.146;10.616;2022-08-19T00:51:56;95790.72;;;21.47;69.00
64228;BME280;50546;49.146;10.616;2022-08-19T00:54:23;95790.69;;;21.54;69.11
64228;BME280;50546;49.146;10.616;2022-08-19T00:56:50;95791.84;;;21.53;69.38
64228;BME280;50546;49.146;10.616;2022-08-19T00:59:17;95779.31;;;21.55;69.13
64228;BME280;50546;49.146;10.616;2022-08-19T01:01:44;95784.00;;;21.55;68.88
64228;BME280;50546;49.146;10.616;2022-08-19T01:04:10;95778.47;;;21.62;68.50
64228;BME280;50546;49.146;10.616;2022-08-19T01:06:37;95785.16;;;21.61;68.64
64228;BME280;50546;49.146;10.616;2022-08-19T01:09:05;95782.03;;;21.59;68.65
64228;BME280;50546;49.146;10.616;2022-08-19T01:11:34;95787.53;;;21.52;69.15
64228;BME280;50546;49.146;10.616;2022-08-19T01:14:00;95789.53;;;21.48;69.41
64228;BME280;50546;49.146;10.616;2022-08-19T01:16:27;95793.09;;;21.37;69.68
64228;BME280;50546;49.146;10.616;2022-08-19T01:18:53;95800.56;;;21.33;70.04
64228;BME280;50546;49.146;10.616;2022-08-19T01:21:25;95802.09;;;21.34;70.15
64228;BME280;50546;49.146;10.616;2022-08-19T01:23:52;95806.41;;;21.39;70.10
64228;BME280;50546;49.146;10.616;2022-08-19T01:26:20;95805.59;;;21.42;70.04
64228;BME280;50546;49.146;10.616;2022-08-19T01:28:48;95803.69;;;21.32;70.41
64228;BME280;50546;49.146;10.616;2022-08-19T01:31:18;95797.81;;;21.37;70.02
64228;BME280;50546;49.146;10.616;2022-08-19T01:33:44;95799.75;;;21.36;69.91
64228;BME280;50546;49.146;10.616;2022-08-19T01:36:13;95795.84;;;21.34;69.61
64228;BME280;50546;49.146;10.616;2022-08-19T01:38:41;95795.06;;;21.37;69.64
64228;BME280;50546;49.146;10.616;2022-08-19T01:41:09;95799.00;;;21.36;69.47
64228;BME280;50546;49.146;10.616;2022-08-19T01:43:35;95803.28;;;21.33;69.65
64228;BME280;50546;49.146;10.616;2022-08-19T01:46:02;95800.94;;;21.35;69.51
64228;BME280;50546;49.146;10.616;2022-08-19T01:48:33;95802.47;;;21.44;69.65
64228;BME280;50546;49.146;10.616;2022-08-19T01:50:58;95815.00;;;21.45;69.02
64228;BME280;50546;49.146;10.616;2022-08-19T01:53:24;95805.56;;;21.49;69.01
64228;BME280;50546;49.146;10.616;2022-08-19T01:55:49;95805.97;;;21.48;68.93
64228;BME280;50546;49.146;10.616;2022-08-19T01:58:20;95806.78;;;21.37;68.92
64228;BME280;50546;49.146;10.616;2022-08-19T02:00:46;95798.94;;;21.43;68.71
64228;BME280;50546;49.146;10.616;2022-08-19T02:03:12;95791.91;;;21.35;68.89
64228;BME280;50546;49.146;10.616;2022-08-19T02:05:38;95788.81;;;21.36;68.77
64228;BME280;50546;49.146;10.616;2022-08-19T02:08:04;95802.88;;;21.38;68.85
64228;BME280;50546;49.146;10.616;2022-08-19T02:10:29;95816.59;;;21.35;68.69
64228;BME280;50546;49.146;10.616;2022-08-19T02:12:55;95818.50;;;21.45;68.55
64228;BME280;50546;49.146;10.616;2022-08-19T02:15:20;95829.84;;;21.51;68.56
64228;BME280;50546;49.146;10.616;2022-08-19T02:17:46;95826.34;;;21.50;68.35
64228;BME280;50546;49.146;10.616;2022-08-19T02:20:12;95832.16;;;21.56;68.25
64228;BME280;50546;49.146;10.616;2022-08-19T02:22:39;95835.75;;;21.38;68.77
64228;BME280;50546;49.146;10.616;2022-08-19T02:25:07;95837.31;;;21.47;68.23
64228;BME280;50546;49.146;10.616;2022-08-19T02:27:32;95841.16;;;21.56;67.68
64228;BME280;50546;49.146;10.616;2022-08-19T02:29:59;95844.34;;;21.48;67.75
64228;BME280;50546;49.146;10.616;2022-08-19T02:32:24;95845.13;;;21.52;67.70
64228;BME280;50546;49.146;10.616;2022-08-19T02:34:50;95844.31;;;21.55;67.50
64228;BME280;50546;49.146;10.616;2022-08-19T02:37:15;95848.22;;;21.61;67.73
64228;BME280;50546;49.146;10.616;2022-08-19T02:39:59;95854.47;;;21.65;67.24
64228;BME280;50546;49.146;10.616;2022-08-19T02:42:24;95848.22;;;21.61;67.26
64228;BME280;50546;49.146;10.616;2022-08-19T02:44:50;95847.81;;;21.59;67.14
64228;BME280;50546;49.146;10.616;2022-08-19T02:47:17;95841.56;;;21.58;67.18
64228;BME280;50546;49.146;10.616;2022-08-19T02:49:44;95839.66;;;21.48;67.53
64228;BME280;50546;49.146;10.616;2022-08-19T02:52:10;95830.63;;;21.51;67.87
64228;BME280;50546;49.146;10.616;2022-08-19T02:54:36;95842.06;;;21.39;67.59
64228;BME280;50546;49.146;10.616;2022-08-19T02:57:02;95845.13;;;21.45;67.81
64228;BME280;50546;49.146;10.616;2022-08-19T02:59:30;95844.34;;;21.48;67.67
64228;BME280;50546;49.146;10.616;2022-08-19T03:01:55;95842.38;;;21.48;67.46
64228;BME280;50546;49.146;10.616;2022-08-19T03:04:20;95839.66;;;21.45;67.64
64228;BME280;50546;49.146;10.616;2022-08-19T03:06:46;95828.31;;;21.43;68.11
64228;BME280;50546;49.146;10.616;2022-08-19T03:09:12;95828.69;;;21.45;67.92
64228;BME280;50546;49.146;10.616;2022-08-19T03:11:38;95831.41;;;21.48;67.96
64228;BME280;50546;49.146;10.616;2022-08-19T03:14:05;95829.13;;;21.36;68.21
64228;BME280;50546;49.146;10.616;2022-08-19T03:16:33;95833.41;;;21.41;68.18
64228;BME280;50546;49.146;10.616;2022-08-19T03:19:00;95822.06;;;21.38;68.36
64228;BME280;50546;49.146;10.616;2022-08-19T03:21:27;95820.91;;;21.36;68.80
64228;BME280;50546;49.146;10.616;2022-08-19T03:24:01;95817.75;;;21.37;68.81
64228;BME280;50546;49.146;10.616;2022-08-19T03:26:27;95819.31;;;21.38;68.85
64228;BME280;50546;49.146;10.616;2022-08-19T03:28:53;95818.94;;;21.36;68.33
64228;BME280;50546;49.146;10.616;2022-08-19T03:31:20;95820.13;;;21.32;68.39
64228;BME280;50546;49.146;10.616;2022-08-19T03:33:50;95823.66;;;21.25;68.18
64228;BME280;50546;49.146;10.616;2022-08-19T03:36:19;95826.47;;;21.04;68.35
64228;BME280;50546;49.146;10.616;2022-08-19T03:38:48;95829.16;;;21.18;68.00
64228;BME280;50546;49.146;10.616;2022-08-19T03:41:16;95824.09;;;21.09;67.98
64228;BME280;50546;49.146;10.616;2022-08-19T03:43:42;95827.63;;;21.10;68.18
64228;BME280;50546;49.146;10.616;2022-08-19T03:46:13;95826.06;;;21.05;68.24
64228;BME280;50546;49.146;10.616;2022-08-19T03:48:40;95819.47;;;20.96;68.35
64228;BME280;50546;49.146;10.616;2022-08-19T03:51:07;95808.09;;;20.97;68.27
64228;BME280;50546;49.146;10.616;2022-08-19T03:53:34;95801.84;;;20.93;68.29
64228;BME280;50546;49.146;10.616;2022-08-19T03:56:00;95807.69;;;20.99;68.25
64228;BME280;50546;49.146;10.616;2022-08-19T03:58:28;95817.06;;;21.08;68.34
64228;BME280;50546;49.146;10.616;2022-08-19T04:00:55;95818.22;;;21.11;68.30
64228;BME280;50546;49.146;10.616;2022-08-19T04:03:22;95810.00;;;21.18;67.71
64228;BME280;50546;49.146;10.616;2022-08-19T04:05:47;95820.94;;;21.18;67.92
64228;BME280;50546;49.146;10.616;2022-08-19T04:08:14;95810.72;;;21.29;67.34
64228;BME280;50546;49.146;10.616;2022-08-19T04:10:43;95818.94;;;21.29;67.75
64228;BME280;50546;49.146;10.616;2022-08-19T04:13:09;95818.16;;;21.29;67.61
64228;BME280;50546;49.146;10.616;2022-08-19T04:15:39;95819.75;;;21.33;67.45
64228;BME280;50546;49.146;10.616;2022-08-19T04:18:07;95802.50;;;21.29;67.74
64228;BME280;50546;49.146;10.616;2022-08-19T04:20:46;95800.56;;;21.26;67.80
64228;BME280;50546;49.146;10.616;2022-08-19T04:23:13;95808.34;;;21.31;67.78
64228;BME280;50546;49.146;10.616;2022-08-19T04:25:42;95810.72;;;21.29;67.53
64228;BME280;50546;49.146;10.616;2022-08-19T04:28:08;95820.16;;;21.21;67.94
64228;BME280;50546;49.146;10.616;2022-08-19T04:30:54;95821.31;;;21.20;68.19
64228;BME280;50546;49.146;10.616;2022-08-19T04:33:24;95817.03;;;21.19;68.00
64228;BME280;50546;49.146;10.616;2022-08-19T04:35:51;95824.03;;;21.27;68.31
64228;BME280;50546;49.146;10.616;2022-08-19T04:38:20;95841.25;;;21.35;67.76
64228;BME280;50546;49.146;10.616;2022-08-19T04:40:49;95840.09;;;21.32;67.62
64228;BME280;50546;49.146;10.616;2022-08-19T04:43:35;95850.25;;;21.32;67.43
64228;BME280;50546;49.146;10.616;2022-08-19T04:46:19;95850.66;;;21.37;67.69
64228;BME280;50546;49.146;10.616;2022-08-19T04:48:45;95842.78;;;21.47;67.41
64228;BME280;50546;49.146;10.616;2022-08-19T04:51:11;95848.31;;;21.39;67.58
64228;BME280;50546;49.146;10.616;2022-08-19T04:53:40;95846.31;;;21.44;67.45
64228;BME280;50546;49.146;10.616;2022-08-19T04:56:08;95852.22;;;21.38;67.21
64228;BME280;50546;49.146;10.616;2022-08-19T04:58:35;95856.91;;;21.38;67.32
64228;BME280;50546;49.146;10.616;2022-08-19T05:01:00;95850.66;;;21.27;67.75
64228;BME280;50546;49.146;10.616;2022-08-19T05:03:26;95849.91;;;21.19;68.14
64228;BME280;50546;49.146;10.616;2022-08-19T05:05:52;95848.34;;;21.22;68.28
64228;BME280;50546;49.146;10.616;2022-08-19T05:08:20;95858.09;;;21.26;67.77
64228;BME280;50546;49.146;10.616;2022-08-19T05:10:50;95864.75;;;21.29;68.09
64228;BME280;50546;49.146;10.616;2022-08-19T05:13:18;95868.63;;;21.31;68.07
64228;BME280;50546;49.146;10.616;2022-08-19T05:15:45;95876.50;;;21.40;67.52
64228;BME280;50546;49.146;10.616;2022-08-19T05:18:17;95887.03;;;21.45;67.47
64228;BME280;50546;49.146;10.616;2022-08-19T05:21:06;95896.84;;;21.43;67.56
64228;BME280;50546;49.146;10.616;2022-08-19T05:23:50;95906.63;;;21.40;67.54
64228;BME280;50546;49.146;10.616;2022-08-19T05:26:15;95906.22;;;21.42;67.48
64228;BME280;50546;49.146;10.616;2022-08-19T05:28:41;95917.97;;;21.38;67.83
64228;BME280;50546;49.146;10.616;2022-08-19T05:31:06;95913.69;;;21.30;67.64
64228;BME280;50546;49.146;10.616;2022-08-19T05:33:31;95916.44;;;21.12;68.27
64228;BME280;50546;49.146;10.616;2022-08-19T05:35:56;95918.03;;;21.10;68.69
64228;BME280;50546;49.146;10.616;2022-08-19T05:38:22;95911.75;;;21.13;68.60
64228;BME280;50546;49.146;10.616;2022-08-19T05:40:47;95916.84;;;21.11;68.18
64228;BME280;50546;49.146;10.616;2022-08-19T05:43:14;95910.22;;;21.05;68.96
64228;BME280;50546;49.146;10.616;2022-08-19T05:45:43;95913.34;;;21.10;68.84
64228;BME280;50546;49.146;10.616;2022-08-19T05:48:13;95907.88;;;21.10;68.94
64228;BME280;50546;49.146;10.616;2022-08-19T05:50:40;95916.88;;;21.04;69.11
64228;BME280;50546;49.146;10.616;2022-08-19T05:53:06;95916.88;;;20.97;69.28
64228;BME280;50546;49.146;10.616;2022-08-19T05:55:32;95914.56;;;20.84;69.98
64228;BME280;50546;49.146;10.616;2022-08-19T05:57:57;95916.47;;;20.87;70.33
64228;BME280;50546;49.146;10.616;2022-08-19T06:00:23;95897.31;;;20.77;70.58
64228;BME280;50546;49.146;10.616;2022-08-19T06:02:48;95893.03;;;20.72;70.29
64228;BME280;50546;49.146;10.616;2022-08-19T06:05:14;95894.97;;;20.86;69.79
64228;BME280;50546;49.146;10.616;2022-08-19T06:07:39;95906.34;;;20.91;69.86
64228;BME280;50546;49.146;10.616;2022-08-19T06:10:07;95908.66;;;20.97;69.45
64228;BME280;50546;49.146;10.616;2022-08-19T06:12:34;95909.41;;;21.11;68.99
64228;BME280;50546;49.146;10.616;2022-08-19T06:15:03;95903.94;;;21.04;68.93
64228;BME280;50546;49.146;10.616;2022-08-19T06:17:29;95902.00;;;20.94;69.42
64228;BME280;50546;49.146;10.616;2022-08-19T06:19:55;95894.56;;;20.95;69.30
64228;BME280;50546;49.146;10.616;2022-08-19T06:22:20;95898.84;;;21.13;69.19
64228;BME280;50546;49.146;10.616;2022-08-19T06:24:46;95893.78;;;20.98;69.70
64228;BME280;50546;49.146;10.616;2022-08-19T06:27:11;95898.88;;;21.10;68.87
64228;BME280;50546;49.146;10.616;2022-08-19T06:29:37;95894.16;;;21.10;68.81
64228;BME280;50546;49.146;10.616;2022-08-19T06:32:03;95900.41;;;21.14;68.58
64228;BME280;50546;49.146;10.616;2022-08-19T06:34:31;95901.97;;;21.08;68.91
64228;BME280;50546;49.146;10.616;2022-08-19T06:36:59;95902.38;;;21.14;68.78
64228;BME280;50546;49.146;10.616;2022-08-19T06:39:28;95901.59;;;21.17;68.84
64228;BME280;50546;49.146;10.616;2022-08-19T06:41:56;95905.09;;;21.21;68.43
64228;BME280;50546;49.146;10.616;2022-08-19T06:44:24;95907.84;;;21.35;68.26
64228;BME280;50546;49.146;10.616;2022-08-19T06:46:51;95896.09;;;21.21;68.37
64228;BME280;50546;49.146;10.616;2022-08-19T06:49:17;95899.63;;;21.21;68.38
64228;BME280;50546;49.146;10.616;2022-08-19T06:51:44;95905.06;;;21.43;68.02
64228;BME280;50546;49.146;10.616;2022-08-19T06:54:13;95905.84;;;21.47;67.69
64228;BME280;50546;49.146;10.616;2022-08-19T06:56:38;95906.59;;;21.51;67.29
64228;BME280;50546;49.146;10.616;2022-08-19T06:59:06;95913.25;;;21.57;67.16
64228;BME280;50546;49.146;10.616;2022-08-19T07:01:37;95912.88;;;21.51;67.26
64228;BME280;50546;49.146;10.616;2022-08-19T07:04:04;95924.22;;;21.57;66.81
64228;BME280;50546;49.146;10.616;2022-08-19T07:06:30;95924.25;;;21.50;66.72
64228;BME280;50546;49.146;10.616;2022-08-19T07:08:57;95921.53;;;21.35;67.51
64228;BME280;50546;49.146;10.616;2022-08-19T07:11:23;95918.03;;;21.21;67.97
64228;BME280;50546;49.146;10.616;2022-08-19T07:13:48;95912.94;;;21.05;68.66
64228;BME280;50546;49.146;10.616;2022-08-19T07:16:17;95908.63;;;21.22;68.47
64228;BME280;50546;49.146;10.616;2022-08-19T07:18:48;95903.94;;;21.15;68.66
64228;BME280;50546;49.146;10.616;2022-08-19T07:21:17;95913.34;;;21.10;68.57
64228;BME280;50546;49.146;10.616;2022-08-19T07:23:43;95924.28;;;21.21;68.42
64228;BME280;50546;49.146;10.616;2022-08-19T07:28:36;95927.41;;;21.09;68.64
64228;BME280;50546;49.146;10.616;2022-08-19T07:31:10;95935.28;;;21.00;69.11
64228;BME280;50546;49.146;10.616;2022-08-19T07:33:36;95936.03;;;21.00;69.02
64228;BME280;50546;49.146;10.616;2022-08-19T07:36:03;95934.09;;;20.94;69.40
64228;BME280;50546;49.146;10.616;2022-08-19T07:38:29;95927.41;;;21.12;68.91
64228;BME280;50546;49.146;10.616;2022-08-19T07:40:54;95928.19;;;21.06;69.02
64228;BME280;50546;49.146;10.616;2022-08-19T07:43:20;95931.34;;;20.83;69.69
64228;BME280;50546;49.146;10.616;2022-08-19T07:45:51;95928.25;;;20.91;69.41
64228;BME280;50546;49.146;10.616;2022-08-19T07:48:18;95942.72;;;20.99;69.23
64228;BME280;50546;49.146;10.616;2022-08-19T07:50:43;95944.25;;;21.04;69.27
64228;BME280;50546;49.146;10.616;2022-08-19T07:53:09;95941.13;;;20.95;69.33
64228;BME280;50546;49.146;10.616;2022-08-19T07:55:34;95945.44;;;20.85;69.69
64228;BME280;50546;49.146;10.616;2022-08-19T07:57:59;95943.09;;;20.98;69.73
64228;BME280;50546;49.146;10.616;2022-08-19T08:00:25;95943.09;;;21.01;69.43
64228;BME280;50546;49.146;10.616;2022-08-19T08:02:52;95941.13;;;20.87;70.05
64228;BME280;50546;49.146;10.616;2022-08-19T08:05:18;95935.66;;;20.95;70.02
64228;BME280;50546;49.146;10.616;2022-08-19T08:08:02;95929.78;;;21.03;69.63
64228;BME280;50546;49.146;10.616;2022-08-19T08:10:45;95924.31;;;21.10;69.31
64228;BME280;50546;49.146;10.616;2022-08-19T08:13:11;95927.03;;;21.07;69.59
64228;BME280;50546;49.146;10.616;2022-08-19T08:15:38;95927.41;;;21.23;69.32
64228;BME280;50546;49.146;10.616;2022-08-19T08:18:04;95940.31;;;21.37;68.51
64228;BME280;50546;49.146;10.616;2022-08-19T08:20:29;95936.78;;;21.44;68.46
64228;BME280;50546;49.146;10.616;2022-08-19T08:22:55;95929.34;;;21.41;68.59
64228;BME280;50546;49.146;10.616;2022-08-19T08:25:38;95920.31;;;21.51;68.09
64228;BME280;50546;49.146;10.616;2022-08-19T08:28:04;95929.75;;;21.32;68.47
64228;BME280;50546;49.146;10.616;2022-08-19T08:30:30;95928.56;;;21.36;68.67
64228;BME280;50546;49.146;10.616;2022-08-19T08:32:57;95928.94;;;21.42;68.13
64228;BME280;50546;49.146;10.616;2022-08-19T08:35:23;95932.00;;;21.69;67.53
64228;BME280;50546;49.146;10.616;2022-08-19T08:37:51;95926.56;;;21.55;67.78
64228;BME280;50546;49.146;10.616;2022-08-19T08:40:22;95932.09;;;21.41;68.39
64228;BME280;50546;49.146;10.616;2022-08-19T08:42:57;95920.31;;;21.51;68.30
64228;BME280;50546;49.146;10.616;2022-08-19T08:45:28;95927.34;;;21.59;67.97
64228;BME280;50546;49.146;10.616;2022-08-19T08:47:57;95924.88;;;21.86;67.60
64228;BME280;50546;49.146;10.616;2022-08-19T08:50:38;95923.28;;;21.92;66.59
64228;BME280;50546;49.146;10.616;2022-08-19T08:53:06;95915.44;;;21.94;66.80
64228;BME280;50546;49.146;10.616;2022-08-19T08:55:33;95915.00;;;21.99;67.24
64228;BME280;50546;49.146;10.616;2022-08-19T08:58:04;95909.13;;;22.04;66.30
64228;BME280;50546;49.146;10.616;2022-08-19T09:00:34;95914.97;;;22.06;66.42
64228;BME280;50546;49.146;10.616;2022-08-19T09:03:01;95922.81;;;22.08;66.55
64228;BME280;50546;49.146;10.616;2022-08-19T09:06:20;95919.25;;;22.15;66.60
64228;BME280;50546;49.146;10.616;2022-08-19T09:08:31;95925.00;;;22.42;66.13
64228;BME280;50546;49.146;10.616;2022-08-19T09:10:58;95934.94;;;22.14;66.21
64228;BME280;50546;49.146;10.616;2022-08-19T09:16:22;95935.41;;;21.95;67.16
64228;BME280;50546;49.146;10.616;2022-08-19T09:18:54;95942.50;;;21.85;67.66
64228;BME280;50546;49.146;10.616;2022-08-19T09:21:21;95953.91;;;21.80;67.70
64228;BME280;50546;49.146;10.616;2022-08-19T09:23:48;95960.63;;;21.61;68.48
64228;BME280;50546;49.146;10.616;2022-08-19T09:26:16;95955.53;;;21.56;68.46
64228;BME280;50546;49.146;10.616;2022-08-19T09:28:43;95948.50;;;21.58;68.33
64228;BME280;50546;49.146;10.616;2022-08-19T09:31:10;95940.25;;;21.62;68.19
64228;BME280;50546;49.146;10.616;2022-08-19T09:33:36;95944.97;;;21.58;68.61
64228;BME280;50546;49.146;10.616;2022-08-19T09:36:10;95942.63;;;21.53;68.67
64228;BME280;50546;49.146;10.616;2022-08-19T09:38:36;95945.38;;;21.46;69.27
64228;BME280;50546;49.146;10.616;2022-08-19T09:41:08;95941.09;;;21.30;69.51
64228;BME280;50546;49.146;10.616;2022-08-19T09:43:33;95935.25;;;21.21;70.17
64228;BME280;50546;49.146;10.616;2022-08-19T09:46:06;95939.91;;;21.28;70.20
64228;BME280;50546;49.146;10.616;2022-08-19T09:48:33;95943.47;;;21.21;69.95
64228;BME280;50546;49.146;10.616;2022-08-19T09:51:06;95944.25;;;21.25;70.27
64228;BME280;50546;49.146;10.616;2022-08-19T09:53:33;95937.59;;;21.08;69.95
64228;BME280;50546;49.146;10.616;2022-08-19T09:55:59;95941.88;;;21.16;69.85
64228;BME280;50546;49.146;10.616;2022-08-19T09:58:24;95929.00;;;21.17;69.95
64228;BME280;50546;49.146;10.616;2022-08-19T10:00:56;95941.09;;;21.37;69.13
64228;BME280;50546;49.146;10.616;2022-08-19T10:03:23;95940.72;;;21.18;69.56
64228;BME280;50546;49.146;10.616;2022-08-19T10:05:48;95940.72;;;21.28;69.73
64228;BME280;50546;49.146;10.616;2022-08-19T10:08:35;95943.84;;;21.12;69.89
64228;BME280;50546;49.146;10.616;2022-08-19T10:11:02;95952.06;;;21.09;70.22
64228;BME280;50546;49.146;10.616;2022-08-19T10:13:30;95948.19;;;21.10;69.99
64228;BME280;50546;49.146;10.616;2022-08-19T10:16:07;95954.03;;;21.05;70.29
64228;BME280;50546;49.146;10.616;2022-08-19T10:18:33;95954.03;;;20.98;70.57
64228;BME280;50546;49.146;10.616;2022-08-19T10:21:11;95951.31;;;20.90;70.78
64228;BME280;50546;49.146;10.616;2022-08-19T10:23:40;95952.09;;;20.95;70.92
64228;BME280;50546;49.146;10.616;2022-08-19T10:26:13;95954.44;;;20.89;70.86
64228;BME280;50546;49.146;10.616;2022-08-19T10:28:39;95954.03;;;20.87;71.09
64228;BME280;50546;49.146;10.616;2022-08-19T10:31:17;95956.00;;;20.90;70.46
64228;BME280;50546;49.146;10.616;2022-08-19T10:33:45;95961.06;;;20.99;70.76
64228;BME280;50546;49.146;10.616;2022-08-19T10:36:14;95957.19;;;21.10;70.57
64228;BME280;50546;49.146;10.616;2022-08-19T10:38:41;95963.81;;;21.13;69.94
64228;BME280;50546;49.146;10.616;2022-08-19T10:41:31;95955.59;;;21.13;70.08
64228;BME280;50546;49.146;10.616;2022-08-19T10:44:00;95957.19;;;21.14;69.96
64228;BME280;50546;49.146;10.616;2022-08-19T10:46:27;95960.69;;;21.25;69.75
64228;BME280;50546;49.146;10.616;2022-08-19T10:48:54;95964.19;;;21.51;68.69
64228;BME280;50546;49.146;10.616;2022-08-19T10:51:20;95960.22;;;21.59;68.31
64228;BME280;50546;49.146;10.616;2022-08-19T10:54:04;95966.94;;;21.47;68.83
64228;BME280;50546;49.146;10.616;2022-08-19T10:56:29;95961.47;;;21.36;69.06
64228;BME280;50546;49.146;10.616;2022-08-19T10:59:14;95973.22;;;21.37;69.10
64228;BME280;50546;49.146;10.616;2022-08-19T11:01:42;95965.75;;;21.41;68.98
64228;BME280;50546;49.146;10.616;2022-08-19T11:04:08;95963.00;;;21.52;68.62
64228;BME280;50546;49.146;10.616;2022-08-19T11:06:39;95961.06;;;21.42;68.96
64228;BME280;50546;49.146;10.616;2022-08-19T11:09:06;95962.63;;;21.43;68.70
64228;BME280;50546;49.146;10.616;2022-08-19T11:11:32;95955.56;;;21.42;68.85
64228;BME280;50546;49.146;10.616;2022-08-19T11:13:59;95955.59;;;21.38;68.79
64228;BME280;50546;49.146;10.616;2022-08-19T11:16:26;95951.28;;;21.30;68.92
64228;BME280;50546;49.146;10.616;2022-08-19T11:18:57;95945.81;;;21.15;69.30
64228;BME280;50546;49.146;10.616;2022-08-19T11:21:32;95956.41;;;21.13;69.65
64228;BME280;50546;49.146;10.616;2022-08-19T11:24:00;95962.22;;;21.26;69.57
64228;BME280;50546;49.146;10.616;2022-08-19T11:26:27;95957.53;;;21.30;69.27
64228;BME280;50546;49.146;10.616;2022-08-19T11:28:53;95950.91;;;21.24;69.44
64228;BME280;50546;49.146;10.616;2022-08-19T11:31:22;95948.97;;;21.10;69.92
64228;BME280;50546;49.146;10.616;2022-08-19T11:33:48;95951.31;;;21.01;70.28
64228;BME280;50546;49.146;10.616;2022-08-19T11:36:17;95944.28;;;20.97;70.72
64228;BME280;50546;49.146;10.616;2022-08-19T11:38:43;95943.09;;;21.01;70.92
64228;BME280;50546;49.146;10.616;2022-08-19T11:41:08;95939.97;;;21.10;70.76
64228;BME280;50546;49.146;10.616;2022-08-19T11:43:35;95934.47;;;21.06;71.78
64228;BME280;50546;49.146;10.616;2022-08-19T11:46:04;95936.41;;;21.06;72.09
64228;BME280;50546;49.146;10.616;2022-08-19T11:48:31;95934.47;;;21.10;72.31
64228;BME280;50546;49.146;10.616;2022-08-19T11:50:56;95934.47;;;21.06;71.92
64228;BME280;50546;49.146;10.616;2022-08-19T11:53:23;95936.03;;;21.07;72.37
64228;BME280;50546;49.146;10.616;2022-08-19T11:55:49;95934.47;;;21.13;72.64
64228;BME280;50546;49.146;10.616;2022-08-19T11:58:17;95939.16;;;21.06;74.62
64228;BME280;50546;49.146;10.616;2022-08-19T12:00:43;95940.75;;;21.00;75.61
64228;BME280;50546;49.146;10.616;2022-08-19T12:03:12;95946.22;;;20.92;77.22
64228;BME280;50546;49.146;10.616;2022-08-19T12:05:39;95944.28;;;20.79;76.93
64228;BME280;50546;49.146;10.616;2022-08-19T12:08:05;95957.19;;;20.67;78.76
64228;BME280;50546;49.146;10.616;2022-08-19T12:10:30;95950.50;;;20.51;79.87
64228;BME280;50546;49.146;10.616;2022-08-19T12:12:56;95961.00;;;20.31;81.39
64228;BME280;50546;49.146;10.616;2022-08-19T12:15:21;95953.97;;;20.19;82.37
64228;BME280;50546;49.146;10.616;2022-08-19T12:17:46;95951.56;;;20.10;82.94
64228;BME280;50546;49.146;10.616;2022-08-19T12:20:13;95963.59;;;19.88;83.93
64228;BME280;50546;49.146;10.616;2022-08-19T12:22:41;95953.88;;;19.90;84.30
64228;BME280;50546;49.146;10.616;2022-08-19T12:25:08;95953.09;;;19.90;84.75
64228;BME280;50546;49.146;10.616;2022-08-19T12:27:35;95958.56;;;20.01;84.38
64228;BME280;50546;49.146;10.616;2022-08-19T12:30:02;95952.72;;;20.06;84.35
64228;BME280;50546;49.146;10.616;2022-08-19T12:32:28;95953.91;;;20.01;85.11
64228;BME280;50546;49.146;10.616;2022-08-19T12:34:54;95956.25;;;20.06;85.17
64228;BME280;50546;49.146;10.616;2022-08-19T12:37:20;95953.91;;;20.05;85.15
64228;BME280;50546;49.146;10.616;2022-08-19T12:39:45;95943.75;;;20.02;86.36
64228;BME280;50546;49.146;10.616;2022-08-19T12:42:12;95954.22;;;19.89;87.52
64228;BME280;50546;49.146;10.616;2022-08-19T12:44:40;95952.28;;;19.89;87.31
64228;BME280;50546;49.146;10.616;2022-08-19T12:47:06;95948.41;;;19.90;87.05
64228;BME280;50546;49.146;10.616;2022-08-19T12:49:33;95951.91;;;19.94;86.87
64228;BME280;50546;49.146;10.616;2022-08-19T12:52:00;95947.63;;;20.01;87.07
64228;BME280;50546;49.146;10.616;2022-08-19T12:54:26;95950.00;;;20.09;86.58
64228;BME280;50546;49.146;10.616;2022-08-19T12:56:51;95956.25;;;20.03;86.83
64228;BME280;50546;49.146;10.616;2022-08-19T12:59:17;95958.22;;;20.13;86.48